sensor_id;sensor_type;location;lat;lon;timestamp;temperature;humidity
71047;SHT31;58703;48.978;8.982;2023-12-28T00:02:16;-0.74;99.99
71047;SHT31;58703;48.978;8.982;2023-12-28T00:04:41;-0.65;99.99
71047;SHT31;58703;48.978;8.982;2023-12-28T00:07:07;-0.41;99.99
71047;SHT31;58703;48.978;8.982;2023-12-28T00:09:32;-0.17;99.99
71047;SHT31;58703;48.978;8.982;2023-12-28T00:11:59;-0.21;99.99
71047;SHT31;58703;48.978;8.982;2023-12-28T00:14:24;-0.27;99.99
71047;SHT31;58703;48.978;8.982;2023-12-28T00:16:50;-0.40;99.99
71047;SHT31;58703;48.978;8.982;2023-12-28T00:19:15;-0.37;99.99
71047;SHT31;58703;48.978;8.982;2023-12-28T00:21:41;-0.33;99.99
71047;SHT31;58703;48.978;8.982;2023-12-28T00:24:06;-0.35;99.99
71047;SHT31;58703;48.978;8.982;2023-12-28T00:26:32;-0.31;99.99
71047;SHT31;58703;48.978;8.982;2023-12-28T00:28:57;-0.30;99.99
71047;SHT31;58703;48.978;8.982;2023-12-28T00:31:23;-0.35;99.99
71047;SHT31;58703;48.978;8.982;2023-12-28T00:33:48;-0.44;99.99
71047;SHT31;58703;48.978;8.982;2023-12-28T00:36:15;-0.60;99.99
71047;SHT31;58703;48.978;8.982;2023-12-28T00:38:41;-0.58;99.99
71047;SHT31;58703;48.978;8.982;2023-12-28T00:41:07;-0.50;99.99
71047;SHT31;58703;48.978;8.982;2023-12-28T00:43:32;-0.44;99.99
71047;SHT31;58703;48.978;8.982;2023-12-28T00:45:58;-0.44;99.99
71047;SHT31;58703;48.978;8.982;2023-12-28T00:48:23;-0.45;99.99
71047;SHT31;58703;48.978;8.982;2023-12-28T00:50:49;-0.44;99.99
71047;SHT31;58703;48.978;8.982;2023-12-28T00:53:14;-0.40;99.99
71047;SHT31;58703;48.978;8.982;2023-12-28T00:55:40;-0.38;99.99
71047;SHT31;58703;48.978;8.982;2023-12-28T00:58:06;-0.35;99.99
71047;SHT31;58703;48.978;8.982;2023-12-28T01:00:31;-0.40;99.99
71047;SHT31;58703;48.978;8.982;2023-12-28T01:02:57;-0.47;99.99
71047;SHT31;58703;48.978;8.982;2023-12-28T01:05:22;-0.31;99.99
71047;SHT31;58703;48.978;8.982;2023-12-28T01:07:51;-0.34;99.99
71047;SHT31;58703;48.978;8.982;2023-12-28T01:10:17;-0.48;99.99
71047;SHT31;58703;48.978;8.982;2023-12-28T01:12:42;-0.47;99.99
71047;SHT31;58703;48.978;8.982;2023-12-28T01:15:08;-0.48;99.99
71047;SHT31;58703;48.978;8.982;2023-12-28T01:17:33;-0.54;99.99
71047;SHT31;58703;48.978;8.982;2023-12-28T01:19:59;-0.60;99.99
71047;SHT31;58703;48.978;8.982;2023-12-28T01:22:25;-0.74;99.99
71047;SHT31;58703;48.978;8.982;2023-12-28T01:24:50;-0.74;99.99
71047;SHT31;58703;48.978;8.982;2023-12-28T01:27:16;-0.86;99.99
71047;SHT31;58703;48.978;8.982;2023-12-28T01:29:42;-0.88;99.99
71047;SHT31;58703;48.978;8.982;2023-12-28T01:32:07;-1.05;99.99
71047;SHT31;58703;48.978;8.982;2023-12-28T01:34:32;-1.17;99.99
71047;SHT31;58703;48.978;8.982;2023-12-28T01:36:58;-1.15;99.99
71047;SHT31;58703;48.978;8.982;2023-12-28T01:39:23;-1.12;99.99
71047;SHT31;58703;48.978;8.982;2023-12-28T01:41:49;-1.21;99.99
71047;SHT31;58703;48.978;8.982;2023-12-28T01:44:15;-1.13;99.99
71047;SHT31;58703;48.978;8.982;2023-12-28T01:46:41;-1.02;99.99
71047;SHT31;58703;48.978;8.982;2023-12-28T01:49:07;-0.99;99.99
71047;SHT31;58703;48.978;8.982;2023-12-28T01:51:33;-1.00;99.99
71047;SHT31;58703;48.978;8.982;2023-12-28T01:53:59;-1.02;99.99
71047;SHT31;58703;48.978;8.982;2023-12-28T01:56:25;-0.96;99.99
71047;SHT31;58703;48.978;8.982;2023-12-28T01:58:53;-0.99;99.99
71047;SHT31;58703;48.978;8.982;2023-12-28T02:01:19;-0.93;99.99
71047;SHT31;58703;48.978;8.982;2023-12-28T02:03:45;-0.92;99.99
71047;SHT31;58703;48.978;8.982;2023-12-28T02:06:12;-0.99;99.99
71047;SHT31;58703;48.978;8.982;2023-12-28T02:08:38;-0.99;99.99
71047;SHT31;58703;48.978;8.982;2023-12-28T02:11:04;-0.92;99.99
71047;SHT31;58703;48.978;8.982;2023-12-28T02:13:30;-0.84;99.99
71047;SHT31;58703;48.978;8.982;2023-12-28T02:16:06;-0.79;99.99
71047;SHT31;58703;48.978;8.982;2023-12-28T02:18:38;-0.91;99.99
71047;SHT31;58703;48.978;8.982;2023-12-28T02:21:06;-1.00;99.99
71047;SHT31;58703;48.978;8.982;2023-12-28T02:23:34;-1.03;99.99
71047;SHT31;58703;48.978;8.982;2023-12-28T02:26:01;-0.89;99.99
71047;SHT31;58703;48.978;8.982;2023-12-28T02:28:27;-0.92;99.99
71047;SHT31;58703;48.978;8.982;2023-12-28T02:30:52;-0.82;99.99
71047;SHT31;58703;48.978;8.982;2023-12-28T02:33:25;-0.93;99.99
71047;SHT31;58703;48.978;8.982;2023-12-28T02:35:57;-0.88;99.99
71047;SHT31;58703;48.978;8.982;2023-12-28T02:38:24;-0.89;99.99
71047;SHT31;58703;48.978;8.982;2023-12-28T02:40:50;-0.84;99.99
71047;SHT31;58703;48.978;8.982;2023-12-28T02:43:16;-0.82;99.99
71047;SHT31;58703;48.978;8.982;2023-12-28T02:45:42;-0.75;99.99
71047;SHT31;58703;48.978;8.982;2023-12-28T02:48:08;-0.75;99.99
71047;SHT31;58703;48.978;8.982;2023-12-28T02:50:34;-0.66;99.99
71047;SHT31;58703;48.978;8.982;2023-12-28T02:53:00;-0.74;99.99
71047;SHT31;58703;48.978;8.982;2023-12-28T02:55:26;-0.66;99.99
71047;SHT31;58703;48.978;8.982;2023-12-28T02:57:54;-0.62;99.99
71047;SHT31;58703;48.978;8.982;2023-12-28T03:00:24;-0.45;99.99
71047;SHT31;58703;48.978;8.982;2023-12-28T03:02:50;-0.37;99.99
71047;SHT31;58703;48.978;8.982;2023-12-28T03:05:16;-0.33;99.99
71047;SHT31;58703;48.978;8.982;2023-12-28T03:07:42;-0.17;99.99
71047;SHT31;58703;48.978;8.982;2023-12-28T03:10:08;-0.15;99.99
71047;SHT31;58703;48.978;8.982;2023-12-28T03:12:34;-0.15;99.99
71047;SHT31;58703;48.978;8.982;2023-12-28T03:14:59;-0.04;99.99
71047;SHT31;58703;48.978;8.982;2023-12-28T03:17:25;0.13;99.99
71047;SHT31;58703;48.978;8.982;2023-12-28T03:19:51;0.31;99.99
71047;SHT31;58703;48.978;8.982;2023-12-28T03:22:16;0.25;99.99
71047;SHT31;58703;48.978;8.982;2023-12-28T03:24:42;0.21;99.99
71047;SHT31;58703;48.978;8.982;2023-12-28T03:27:08;0.21;99.99
71047;SHT31;58703;48.978;8.982;2023-12-28T03:29:34;0.34;99.99
71047;SHT31;58703;48.978;8.982;2023-12-28T03:31:59;0.42;99.99
71047;SHT31;58703;48.978;8.982;2023-12-28T03:34:26;0.61;99.99
71047;SHT31;58703;48.978;8.982;2023-12-28T03:36:52;0.61;99.99
71047;SHT31;58703;48.978;8.982;2023-12-28T03:39:18;0.54;99.99
71047;SHT31;58703;48.978;8.982;2023-12-28T03:41:44;0.61;99.99
71047;SHT31;58703;48.978;8.982;2023-12-28T03:44:10;0.47;99.99
71047;SHT31;58703;48.978;8.982;2023-12-28T03:46:35;0.41;99.99
71047;SHT31;58703;48.978;8.982;2023-12-28T03:49:01;0.32;99.99
71047;SHT31;58703;48.978;8.982;2023-12-28T03:51:26;0.32;99.99
71047;SHT31;58703;48.978;8.982;2023-12-28T03:53:52;0.37;99.99
71047;SHT31;58703;48.978;8.982;2023-12-28T03:56:25;0.44;99.99
71047;SHT31;58703;48.978;8.982;2023-12-28T03:58:51;0.44;99.99
71047;SHT31;58703;48.978;8.982;2023-12-28T04:01:18;0.55;99.99
71047;SHT31;58703;48.978;8.982;2023-12-28T04:03:44;0.55;99.99
71047;SHT31;58703;48.978;8.982;2023-12-28T04:06:10;0.55;99.99
71047;SHT31;58703;48.978;8.982;2023-12-28T04:08:36;0.79;99.99
71047;SHT31;58703;48.978;8.982;2023-12-28T04:11:01;0.78;99.99
71047;SHT31;58703;48.978;8.982;2023-12-28T04:13:27;0.86;99.99
71047;SHT31;58703;48.978;8.982;2023-12-28T04:15:52;0.88;99.99
71047;SHT31;58703;48.978;8.982;2023-12-28T04:18:18;0.92;99.99
71047;SHT31;58703;48.978;8.982;2023-12-28T04:20:44;0.85;99.99
71047;SHT31;58703;48.978;8.982;2023-12-28T04:23:11;0.91;99.99
71047;SHT31;58703;48.978;8.982;2023-12-28T04:25:37;0.89;99.99
71047;SHT31;58703;48.978;8.982;2023-12-28T04:28:03;1.00;99.99
71047;SHT31;58703;48.978;8.982;2023-12-28T04:30:29;1.10;99.99
71047;SHT31;58703;48.978;8.982;2023-12-28T04:32:54;1.07;99.56
71047;SHT31;58703;48.978;8.982;2023-12-28T04:35:20;1.17;99.77
71047;SHT31;58703;48.978;8.982;2023-12-28T04:37:45;1.27;99.99
71047;SHT31;58703;48.978;8.982;2023-12-28T04:40:11;1.32;99.79
71047;SHT31;58703;48.978;8.982;2023-12-28T04:42:36;1.40;99.37
71047;SHT31;58703;48.978;8.982;2023-12-28T04:45:02;1.42;98.80
71047;SHT31;58703;48.978;8.982;2023-12-28T04:47:27;1.39;98.76
71047;SHT31;58703;48.978;8.982;2023-12-28T04:49:53;1.30;99.10
71047;SHT31;58703;48.978;8.982;2023-12-28T04:52:19;1.27;99.41
71047;SHT31;58703;48.978;8.982;2023-12-28T04:54:45;1.23;99.66
71047;SHT31;58703;48.978;8.982;2023-12-28T04:57:10;1.71;99.44
71047;SHT31;58703;48.978;8.982;2023-12-28T04:59:40;2.38;96.87
71047;SHT31;58703;48.978;8.982;2023-12-28T05:02:05;8.07;81.22
71047;SHT31;58703;48.978;8.982;2023-12-28T05:04:31;9.63;74.05
71047;SHT31;58703;48.978;8.982;2023-12-28T05:06:58;10.04;73.30
71047;SHT31;58703;48.978;8.982;2023-12-28T05:09:23;10.24;71.85
71047;SHT31;58703;48.978;8.982;2023-12-28T05:11:49;10.31;72.79
71047;SHT31;58703;48.978;8.982;2023-12-28T05:14:14;10.68;70.75
71047;SHT31;58703;48.978;8.982;2023-12-28T05:16:40;11.12;70.10
71047;SHT31;58703;48.978;8.982;2023-12-28T05:19:05;10.89;72.02
71047;SHT31;58703;48.978;8.982;2023-12-28T05:21:31;10.86;72.77
71047;SHT31;58703;48.978;8.982;2023-12-28T05:23:57;11.09;72.57
71047;SHT31;58703;48.978;8.982;2023-12-28T05:26:22;10.98;73.13
71047;SHT31;58703;48.978;8.982;2023-12-28T05:28:49;10.72;74.68
71047;SHT31;58703;48.978;8.982;2023-12-28T05:31:15;10.89;74.28
71047;SHT31;58703;48.978;8.982;2023-12-28T05:33:40;10.82;74.95
71047;SHT31;58703;48.978;8.982;2023-12-28T05:36:06;10.92;75.74
71047;SHT31;58703;48.978;8.982;2023-12-28T05:38:32;10.93;76.36
71047;SHT31;58703;48.978;8.982;2023-12-28T05:40:57;11.05;76.00
71047;SHT31;58703;48.978;8.982;2023-12-28T05:43:23;10.99;76.80
71047;SHT31;58703;48.978;8.982;2023-12-28T05:45:48;10.89;77.06
71047;SHT31;58703;48.978;8.982;2023-12-28T05:48:14;10.92;77.23
71047;SHT31;58703;48.978;8.982;2023-12-28T05:50:40;10.85;77.76
71047;SHT31;58703;48.978;8.982;2023-12-28T05:53:06;10.64;79.10
71047;SHT31;58703;48.978;8.982;2023-12-28T05:55:31;10.91;78.53
71047;SHT31;58703;48.978;8.982;2023-12-28T05:57:57;10.81;79.30
71047;SHT31;58703;48.978;8.982;2023-12-28T06:00:22;10.62;80.08
71047;SHT31;58703;48.978;8.982;2023-12-28T06:02:49;10.76;79.55
71047;SHT31;58703;48.978;8.982;2023-12-28T06:05:17;10.79;79.72
71047;SHT31;58703;48.978;8.982;2023-12-28T06:07:43;10.89;79.49
71047;SHT31;58703;48.978;8.982;2023-12-28T06:10:09;10.92;79.52
71047;SHT31;58703;48.978;8.982;2023-12-28T06:12:35;10.83;79.96
71047;SHT31;58703;48.978;8.982;2023-12-28T06:15:01;10.72;80.66
71047;SHT31;58703;48.978;8.982;2023-12-28T06:17:28;10.86;79.89
71047;SHT31;58703;48.978;8.982;2023-12-28T06:19:54;10.91;79.52
71047;SHT31;58703;48.978;8.982;2023-12-28T06:22:19;11.11;79.04
71047;SHT31;58703;48.978;8.982;2023-12-28T06:24:45;11.20;79.32
71047;SHT31;58703;48.978;8.982;2023-12-28T06:27:11;11.06;79.33
71047;SHT31;58703;48.978;8.982;2023-12-28T06:29:36;11.01;79.76
71047;SHT31;58703;48.978;8.982;2023-12-28T06:32:02;10.93;80.09
71047;SHT31;58703;48.978;8.982;2023-12-28T06:34:28;10.92;80.50
71047;SHT31;58703;48.978;8.982;2023-12-28T06:36:54;11.06;80.14
71047;SHT31;58703;48.978;8.982;2023-12-28T06:39:20;11.16;80.19
71047;SHT31;58703;48.978;8.982;2023-12-28T06:41:49;11.03;80.98
71047;SHT31;58703;48.978;8.982;2023-12-28T06:44:15;11.03;81.00
71047;SHT31;58703;48.978;8.982;2023-12-28T06:46:41;11.01;81.28
71047;SHT31;58703;48.978;8.982;2023-12-28T06:49:06;11.05;81.15
71047;SHT31;58703;48.978;8.982;2023-12-28T06:51:32;10.86;82.10
71047;SHT31;58703;48.978;8.982;2023-12-28T06:53:58;10.98;81.42
71047;SHT31;58703;48.978;8.982;2023-12-28T06:56:25;11.01;81.49
71047;SHT31;58703;48.978;8.982;2023-12-28T06:58:52;10.68;83.31
71047;SHT31;58703;48.978;8.982;2023-12-28T07:01:18;10.51;83.99
71047;SHT31;58703;48.978;8.982;2023-12-28T07:03:43;10.40;84.15
71047;SHT31;58703;48.978;8.982;2023-12-28T07:06:09;10.22;84.59
71047;SHT31;58703;48.978;8.982;2023-12-28T07:08:34;10.17;84.64
71047;SHT31;58703;48.978;8.982;2023-12-28T07:11:03;10.09;85.32
71047;SHT31;58703;48.978;8.982;2023-12-28T07:13:29;9.97;85.65
71047;SHT31;58703;48.978;8.982;2023-12-28T07:15:55;9.91;86.11
71047;SHT31;58703;48.978;8.982;2023-12-28T07:18:21;10.00;86.27
71047;SHT31;58703;48.978;8.982;2023-12-28T07:20:47;9.94;86.65
71047;SHT31;58703;48.978;8.982;2023-12-28T07:23:13;9.83;87.14
71047;SHT31;58703;48.978;8.982;2023-12-28T07:25:38;9.65;88.19
71047;SHT31;58703;48.978;8.982;2023-12-28T07:28:06;9.52;89.10
71047;SHT31;58703;48.978;8.982;2023-12-28T07:30:31;9.39;89.56
71047;SHT31;58703;48.978;8.982;2023-12-28T07:32:57;9.26;90.54
71047;SHT31;58703;48.978;8.982;2023-12-28T07:35:23;9.18;91.69
71047;SHT31;58703;48.978;8.982;2023-12-28T07:37:48;9.08;92.21
71047;SHT31;58703;48.978;8.982;2023-12-28T07:40:15;8.94;92.61
71047;SHT31;58703;48.978;8.982;2023-12-28T07:42:42;8.84;92.75
71047;SHT31;58703;48.978;8.982;2023-12-28T07:45:08;8.84;92.82
71047;SHT31;58703;48.978;8.982;2023-12-28T07:47:33;8.78;92.58
71047;SHT31;58703;48.978;8.982;2023-12-28T07:49:59;8.75;92.75
71047;SHT31;58703;48.978;8.982;2023-12-28T07:52:26;8.75;92.51
71047;SHT31;58703;48.978;8.982;2023-12-28T07:54:51;8.71;92.96
71047;SHT31;58703;48.978;8.982;2023-12-28T07:57:17;8.65;93.14
71047;SHT31;58703;48.978;8.982;2023-12-28T07:59:43;8.60;93.36
71047;SHT31;58703;48.978;8.982;2023-12-28T08:02:09;8.52;93.94
71047;SHT31;58703;48.978;8.982;2023-12-28T08:04:35;8.49;93.55
71047;SHT31;58703;48.978;8.982;2023-12-28T08:07:00;8.49;93.55
71047;SHT31;58703;48.978;8.982;2023-12-28T08:09:26;8.36;94.15
71047;SHT31;58703;48.978;8.982;2023-12-28T08:11:52;8.32;94.41
71047;SHT31;58703;48.978;8.982;2023-12-28T08:14:18;8.33;94.35
71047;SHT31;58703;48.978;8.982;2023-12-28T08:16:44;8.36;94.23
71047;SHT31;58703;48.978;8.982;2023-12-28T08:19:10;8.29;94.41
71047;SHT31;58703;48.978;8.982;2023-12-28T08:21:36;8.25;94.59
71047;SHT31;58703;48.978;8.982;2023-12-28T08:24:02;8.32;94.58
71047;SHT31;58703;48.978;8.982;2023-12-28T08:26:27;8.28;94.50
71047;SHT31;58703;48.978;8.982;2023-12-28T08:28:53;8.23;94.61
71047;SHT31;58703;48.978;8.982;2023-12-28T08:31:19;8.22;95.16
71047;SHT31;58703;48.978;8.982;2023-12-28T08:33:44;8.16;94.98
71047;SHT31;58703;48.978;8.982;2023-12-28T08:36:10;8.02;95.38
71047;SHT31;58703;48.978;8.982;2023-12-28T08:38:37;7.95;95.69
71047;SHT31;58703;48.978;8.982;2023-12-28T08:41:02;7.95;95.47
71047;SHT31;58703;48.978;8.982;2023-12-28T08:43:34;7.95;95.74
71047;SHT31;58703;48.978;8.982;2023-12-28T08:46:00;7.92;95.41
71047;SHT31;58703;48.978;8.982;2023-12-28T08:48:25;8.05;95.13
71047;SHT31;58703;48.978;8.982;2023-12-28T08:50:51;8.06;95.54
71047;SHT31;58703;48.978;8.982;2023-12-28T08:53:16;7.99;95.03
71047;SHT31;58703;48.978;8.982;2023-12-28T08:55:42;7.99;95.54
71047;SHT31;58703;48.978;8.982;2023-12-28T08:58:07;7.85;95.33
71047;SHT31;58703;48.978;8.982;2023-12-28T09:00:33;7.93;95.22
71047;SHT31;58703;48.978;8.982;2023-12-28T09:02:58;7.96;95.34
71047;SHT31;58703;48.978;8.982;2023-12-28T09:05:24;8.01;94.69
71047;SHT31;58703;48.978;8.982;2023-12-28T09:07:49;8.10;94.18
71047;SHT31;58703;48.978;8.982;2023-12-28T09:10:15;8.25;94.13
71047;SHT31;58703;48.978;8.982;2023-12-28T09:12:41;8.28;93.33
71047;SHT31;58703;48.978;8.982;2023-12-28T09:15:07;8.39;93.67
71047;SHT31;58703;48.978;8.982;2023-12-28T09:17:34;8.50;94.08
71047;SHT31;58703;48.978;8.982;2023-12-28T09:20:00;8.57;93.55
71047;SHT31;58703;48.978;8.982;2023-12-28T09:22:27;8.59;92.41
71047;SHT31;58703;48.978;8.982;2023-12-28T09:24:52;8.64;92.60
71047;SHT31;58703;48.978;8.982;2023-12-28T09:27:18;8.74;92.82
71047;SHT31;58703;48.978;8.982;2023-12-28T09:29:47;8.81;92.27
71047;SHT31;58703;48.978;8.982;2023-12-28T09:32:12;8.80;91.49
71047;SHT31;58703;48.978;8.982;2023-12-28T09:34:40;8.70;92.28
71047;SHT31;58703;48.978;8.982;2023-12-28T09:37:05;8.77;92.40
71047;SHT31;58703;48.978;8.982;2023-12-28T09:39:31;8.74;91.82
71047;SHT31;58703;48.978;8.982;2023-12-28T09:42:09;8.75;91.67
71047;SHT31;58703;48.978;8.982;2023-12-28T09:44:40;8.74;91.99
71047;SHT31;58703;48.978;8.982;2023-12-28T09:47:09;8.73;92.05
71047;SHT31;58703;48.978;8.982;2023-12-28T09:49:38;8.73;92.14
71047;SHT31;58703;48.978;8.982;2023-12-28T09:52:06;8.71;92.57
71047;SHT31;58703;48.978;8.982;2023-12-28T09:54:31;8.63;92.51
71047;SHT31;58703;48.978;8.982;2023-12-28T09:56:57;8.63;93.75
71047;SHT31;58703;48.978;8.982;2023-12-28T09:59:24;8.57;92.97
71047;SHT31;58703;48.978;8.982;2023-12-28T10:01:49;8.57;93.15
71047;SHT31;58703;48.978;8.982;2023-12-28T10:04:18;8.61;92.77
71047;SHT31;58703;48.978;8.982;2023-12-28T10:06:44;8.65;93.29
71047;SHT31;58703;48.978;8.982;2023-12-28T10:09:10;8.63;93.39
71047;SHT31;58703;48.978;8.982;2023-12-28T10:11:36;8.63;95.09
71047;SHT31;58703;48.978;8.982;2023-12-28T10:14:02;8.64;95.08
71047;SHT31;58703;48.978;8.982;2023-12-28T10:16:30;8.75;95.82
71047;SHT31;58703;48.978;8.982;2023-12-28T10:18:56;8.80;95.20
71047;SHT31;58703;48.978;8.982;2023-12-28T10:21:24;8.84;96.24
71047;SHT31;58703;48.978;8.982;2023-12-28T10:23:50;8.98;94.85
71047;SHT31;58703;48.978;8.982;2023-12-28T10:26:17;9.11;96.53
71047;SHT31;58703;48.978;8.982;2023-12-28T10:28:43;9.01;96.42
71047;SHT31;58703;48.978;8.982;2023-12-28T10:31:11;9.03;95.89
71047;SHT31;58703;48.978;8.982;2023-12-28T10:33:37;9.16;95.24
71047;SHT31;58703;48.978;8.982;2023-12-28T10:36:07;9.29;94.90
71047;SHT31;58703;48.978;8.982;2023-12-28T10:38:37;9.45;94.48
71047;SHT31;58703;48.978;8.982;2023-12-28T10:41:07;9.63;94.69
71047;SHT31;58703;48.978;8.982;2023-12-28T10:43:54;9.63;95.19
71047;SHT31;58703;48.978;8.982;2023-12-28T10:46:26;9.75;93.62
71047;SHT31;58703;48.978;8.982;2023-12-28T10:48:59;9.72;94.71
71047;SHT31;58703;48.978;8.982;2023-12-28T10:51:26;9.83;94.95
71047;SHT31;58703;48.978;8.982;2023-12-28T10:56:46;9.79;94.64
71047;SHT31;58703;48.978;8.982;2023-12-28T10:59:21;9.76;95.04
71047;SHT31;58703;48.978;8.982;2023-12-28T11:01:51;9.66;95.21
71047;SHT31;58703;48.978;8.982;2023-12-28T11:04:23;9.65;95.48
71047;SHT31;58703;48.978;8.982;2023-12-28T11:06:51;9.72;94.56
71047;SHT31;58703;48.978;8.982;2023-12-28T11:09:18;9.65;95.26
71047;SHT31;58703;48.978;8.982;2023-12-28T11:11:46;9.63;95.34
71047;SHT31;58703;48.978;8.982;2023-12-28T11:14:12;9.70;95.66
71047;SHT31;58703;48.978;8.982;2023-12-28T11:16:40;9.72;95.45
71047;SHT31;58703;48.978;8.982;2023-12-28T11:19:07;9.73;95.21
71047;SHT31;58703;48.978;8.982;2023-12-28T11:21:34;9.76;95.57
71047;SHT31;58703;48.978;8.982;2023-12-28T11:24:01;9.77;93.81
71047;SHT31;58703;48.978;8.982;2023-12-28T11:26:27;9.85;94.55
71047;SHT31;58703;48.978;8.982;2023-12-28T11:29:00;9.96;95.15
71047;SHT31;58703;48.978;8.982;2023-12-28T11:31:26;9.89;95.06
71047;SHT31;58703;48.978;8.982;2023-12-28T11:33:54;9.89;94.66
71047;SHT31;58703;48.978;8.982;2023-12-28T11:36:22;9.99;95.29
71047;SHT31;58703;48.978;8.982;2023-12-28T11:38:53;10.06;94.07
71047;SHT31;58703;48.978;8.982;2023-12-28T11:41:20;10.10;93.24
71047;SHT31;58703;48.978;8.982;2023-12-28T11:43:52;10.18;93.23
71047;SHT31;58703;48.978;8.982;2023-12-28T11:46:20;10.22;93.25
71047;SHT31;58703;48.978;8.982;2023-12-28T11:48:49;10.31;92.68
71047;SHT31;58703;48.978;8.982;2023-12-28T11:51:16;10.31;92.75
71047;SHT31;58703;48.978;8.982;2023-12-28T11:53:43;10.34;93.04
71047;SHT31;58703;48.978;8.982;2023-12-28T11:56:09;10.36;93.76
71047;SHT31;58703;48.978;8.982;2023-12-28T11:58:36;10.31;92.59
71047;SHT31;58703;48.978;8.982;2023-12-28T12:01:02;10.28;93.40
71047;SHT31;58703;48.978;8.982;2023-12-28T12:03:28;10.28;93.05
71047;SHT31;58703;48.978;8.982;2023-12-28T12:05:58;10.33;93.61
71047;SHT31;58703;48.978;8.982;2023-12-28T12:08:24;10.28;92.72
71047;SHT31;58703;48.978;8.982;2023-12-28T12:11:02;10.25;93.68
71047;SHT31;58703;48.978;8.982;2023-12-28T12:13:29;10.14;93.98
71047;SHT31;58703;48.978;8.982;2023-12-28T12:15:55;10.04;94.12
71047;SHT31;58703;48.978;8.982;2023-12-28T12:18:22;10.00;94.69
71047;SHT31;58703;48.978;8.982;2023-12-28T12:20:49;10.01;95.33
71047;SHT31;58703;48.978;8.982;2023-12-28T12:23:15;10.09;95.96
71047;SHT31;58703;48.978;8.982;2023-12-28T12:25:41;10.07;95.53
71047;SHT31;58703;48.978;8.982;2023-12-28T12:28:06;10.01;96.45
71047;SHT31;58703;48.978;8.982;2023-12-28T12:30:32;9.96;96.55
71047;SHT31;58703;48.978;8.982;2023-12-28T12:32:58;9.93;98.29
71047;SHT31;58703;48.978;8.982;2023-12-28T12:35:24;9.85;98.27
71047;SHT31;58703;48.978;8.982;2023-12-28T12:37:50;9.82;98.57
71047;SHT31;58703;48.978;8.982;2023-12-28T12:40:17;9.83;98.76
71047;SHT31;58703;48.978;8.982;2023-12-28T12:42:54;9.80;98.21
71047;SHT31;58703;48.978;8.982;2023-12-28T12:45:20;9.79;98.23
71047;SHT31;58703;48.978;8.982;2023-12-28T12:47:47;9.72;98.92
71047;SHT31;58703;48.978;8.982;2023-12-28T12:50:15;9.67;98.38
71047;SHT31;58703;48.978;8.982;2023-12-28T12:52:41;9.67;98.82
71047;SHT31;58703;48.978;8.982;2023-12-28T12:55:13;9.66;98.55
71047;SHT31;58703;48.978;8.982;2023-12-28T12:57:41;9.72;98.68
71047;SHT31;58703;48.978;8.982;2023-12-28T13:00:09;9.75;98.04
71047;SHT31;58703;48.978;8.982;2023-12-28T13:02:35;9.72;98.19
71047;SHT31;58703;48.978;8.982;2023-12-28T13:05:05;9.70;98.62
71047;SHT31;58703;48.978;8.982;2023-12-28T13:07:32;9.67;98.70
71047;SHT31;58703;48.978;8.982;2023-12-28T13:09:58;9.63;98.64
71047;SHT31;58703;48.978;8.982;2023-12-28T13:12:24;9.62;98.66
71047;SHT31;58703;48.978;8.982;2023-12-28T13:14:50;9.66;98.09
71047;SHT31;58703;48.978;8.982;2023-12-28T13:17:15;9.66;98.39
71047;SHT31;58703;48.978;8.982;2023-12-28T13:19:42;9.63;98.60
71047;SHT31;58703;48.978;8.982;2023-12-28T13:22:08;9.56;98.45
71047;SHT31;58703;48.978;8.982;2023-12-28T13:24:33;9.50;99.23
71047;SHT31;58703;48.978;8.982;2023-12-28T13:26:59;9.42;99.38
71047;SHT31;58703;48.978;8.982;2023-12-28T13:29:26;9.46;99.94
71047;SHT31;58703;48.978;8.982;2023-12-28T13:31:51;9.42;99.43
71047;SHT31;58703;48.978;8.982;2023-12-28T13:34:17;9.48;99.08
71047;SHT31;58703;48.978;8.982;2023-12-28T13:36:44;9.56;98.51
71047;SHT31;58703;48.978;8.982;2023-12-28T13:39:10;9.55;98.35
71047;SHT31;58703;48.978;8.982;2023-12-28T13:41:39;9.50;99.06
71047;SHT31;58703;48.978;8.982;2023-12-28T13:44:05;9.49;98.31
71047;SHT31;58703;48.978;8.982;2023-12-28T13:46:35;9.55;97.94
71047;SHT31;58703;48.978;8.982;2023-12-28T13:49:01;9.52;97.92
71047;SHT31;58703;48.978;8.982;2023-12-28T13:51:30;9.43;97.66
71047;SHT31;58703;48.978;8.982;2023-12-28T13:53:56;9.39;97.73
71047;SHT31;58703;48.978;8.982;2023-12-28T13:56:21;9.39;97.85
71047;SHT31;58703;48.978;8.982;2023-12-28T13:58:47;9.36;97.21
71047;SHT31;58703;48.978;8.982;2023-12-28T14:01:13;9.31;97.32
71047;SHT31;58703;48.978;8.982;2023-12-28T14:03:38;9.31;97.32
71047;SHT31;58703;48.978;8.982;2023-12-28T14:06:04;9.28;97.25
71047;SHT31;58703;48.978;8.982;2023-12-28T14:08:30;9.34;97.20
71047;SHT31;58703;48.978;8.982;2023-12-28T14:10:55;9.34;97.17
71047;SHT31;58703;48.978;8.982;2023-12-28T14:13:21;9.25;96.91
71047;SHT31;58703;48.978;8.982;2023-12-28T14:15:48;9.21;97.79
71047;SHT31;58703;48.978;8.982;2023-12-28T14:18:13;9.24;96.79
71047;SHT31;58703;48.978;8.982;2023-12-28T14:20:39;9.28;97.18
71047;SHT31;58703;48.978;8.982;2023-12-28T14:23:05;9.26;96.36
71047;SHT31;58703;48.978;8.982;2023-12-28T14:25:32;9.26;95.61
71047;SHT31;58703;48.978;8.982;2023-12-28T14:27:58;9.45;94.65
71047;SHT31;58703;48.978;8.982;2023-12-28T14:30:24;9.52;94.21
71047;SHT31;58703;48.978;8.982;2023-12-28T14:32:52;9.55;94.36
71047;SHT31;58703;48.978;8.982;2023-12-28T14:35:18;9.60;93.29
71047;SHT31;58703;48.978;8.982;2023-12-28T14:37:45;9.62;93.99
71047;SHT31;58703;48.978;8.982;2023-12-28T14:40:11;9.58;94.35
71047;SHT31;58703;48.978;8.982;2023-12-28T14:42:40;9.56;94.50
71047;SHT31;58703;48.978;8.982;2023-12-28T14:45:07;9.55;94.50
71047;SHT31;58703;48.978;8.982;2023-12-28T14:47:33;9.53;94.69
71047;SHT31;58703;48.978;8.982;2023-12-28T14:50:00;9.50;94.92
71047;SHT31;58703;48.978;8.982;2023-12-28T14:52:27;9.49;95.21
71047;SHT31;58703;48.978;8.982;2023-12-28T14:54:55;9.49;94.99
71047;SHT31;58703;48.978;8.982;2023-12-28T14:57:22;9.52;94.60
71047;SHT31;58703;48.978;8.982;2023-12-28T14:59:48;9.45;94.96
71047;SHT31;58703;48.978;8.982;2023-12-28T15:02:15;9.56;93.92
71047;SHT31;58703;48.978;8.982;2023-12-28T15:04:42;9.55;94.39
71047;SHT31;58703;48.978;8.982;2023-12-28T15:07:09;9.53;94.36
71047;SHT31;58703;48.978;8.982;2023-12-28T15:09:36;9.53;94.73
71047;SHT31;58703;48.978;8.982;2023-12-28T15:12:02;9.49;94.66
71047;SHT31;58703;48.978;8.982;2023-12-28T15:14:28;9.52;94.05
71047;SHT31;58703;48.978;8.982;2023-12-28T15:16:56;9.49;94.07
71047;SHT31;58703;48.978;8.982;2023-12-28T15:19:23;9.55;93.98
71047;SHT31;58703;48.978;8.982;2023-12-28T15:21:50;9.65;93.73
71047;SHT31;58703;48.978;8.982;2023-12-28T15:24:18;9.60;93.96
71047;SHT31;58703;48.978;8.982;2023-12-28T15:26:45;9.48;94.33
71047;SHT31;58703;48.978;8.982;2023-12-28T15:29:11;9.48;94.59
71047;SHT31;58703;48.978;8.982;2023-12-28T15:31:39;9.35;95.05
71047;SHT31;58703;48.978;8.982;2023-12-28T15:34:05;9.40;94.73
71047;SHT31;58703;48.978;8.982;2023-12-28T15:36:32;9.42;94.62
71047;SHT31;58703;48.978;8.982;2023-12-28T15:38:58;9.40;94.74